Flight Track Log - Related Links

Times and Time Zones

All times are in EDT time to prevent confusion due to time zone crossing. See the CES542 flight status page for this flight to view local times or setup timezone preferences in your user account.

Time Position Orientation Groundspeed Altitude Reporting Facility
EDT Latitude Longitude Course Direction KTS MPH feet Rate Location/Type
Tue 06:48:00 AM 16.5730 103.7226 44° Northeast  Level Estimated
Tue 06:49:00 AM 16.6527 103.8064 45° Northeast  Level Estimated
Tue 06:50:00 AM 16.7324 103.8904 45° Northeast  Level Estimated
Tue 06:51:00 AM 16.8121 103.9744 45° Northeast  Level Estimated
Tue 06:52:00 AM 16.8918 104.0584 45° Northeast  Level Estimated
Tue 06:53:00 AM 16.9714 104.1425 45° Northeast  Level Estimated
Tue 06:54:00 AM 17.0509 104.2268 45° Northeast  Level Estimated
Tue 06:55:00 AM 17.1305 104.3110 45° Northeast  Level Estimated
Tue 06:56:00 AM 17.2100 104.3954 45° Northeast  Level Estimated
Tue 06:57:00 AM 17.2895 104.4798 45° Northeast  Level Estimated
Tue 06:58:00 AM 17.3689 104.5643 45° Northeast  Level Estimated
Tue 06:59:00 AM 17.4483 104.6489 45° Northeast  Level Estimated
Tue 07:00:00 AM 17.5277 104.7335 45° Northeast  Level Estimated
Tue 07:01:00 AM 17.6070 104.8182 45° Northeast  Level Estimated
Tue 07:02:00 AM 17.6863 104.9030 46° Northeast  Level Estimated
Tue 07:03:00 AM 17.7656 104.9879 46° Northeast  Level Estimated
Tue 07:04:00 AM 17.8448 105.0728 46° Northeast  Level Estimated
Tue 07:05:00 AM 17.9240 105.1578 46° Northeast  Level Estimated
Tue 07:06:00 AM 18.0032 105.2429 46° Northeast  Level Estimated
Tue 07:07:00 AM 18.0823 105.3281 46° Northeast  Level Estimated
Tue 07:08:00 AM 18.1613 105.4133 46° Northeast  Level Estimated
Tue 07:09:00 AM 18.2404 105.4986 46° Northeast  Level Estimated
Tue 07:11:33 AM 18.4418 105.7166 46° Northeast  Level Estimated
Tue 07:13:00 AM 18.5562 105.8407 46° Northeast  Level Estimated
Tue 07:14:00 AM 18.6350 105.9264 46° Northeast  Level Estimated
Tue 07:15:00 AM 18.7138 106.0122 46° Northeast  Level Estimated
Tue 07:16:00 AM 18.7926 106.0981 46° Northeast  Level Estimated
Tue 07:17:00 AM 18.8713 106.1840 46° Northeast  Level Estimated
Tue 07:18:00 AM 18.9500 106.2700 46° Northeast  Level Estimated
Tue 07:19:00 AM 19.0287 106.3561 46° Northeast  Level Estimated
Tue 07:20:00 AM 19.1073 106.4424 46° Northeast  Level Estimated
Tue 07:21:00 AM 19.1858 106.5286 46° Northeast  Level Estimated
Tue 07:22:00 AM 19.2644 106.6150 46° Northeast  Level Estimated
Tue 07:23:00 AM 19.3429 106.7014 46° Northeast  Level Estimated
Tue 07:24:00 AM 19.4213 106.7880 46° Northeast  Level Estimated
Tue 07:25:00 AM 19.4997 106.8746 46° Northeast  Level Estimated
Tue 07:26:00 AM 19.5781 106.9613 46° Northeast  Level Estimated
Tue 07:27:00 AM 19.6564 107.0480 46° Northeast  Level Estimated
Tue 07:28:00 AM 19.7347 107.1349 46° Northeast  Level Estimated
Tue 07:29:00 AM 19.8129 107.2218 46° Northeast  Level Estimated
Tue 07:30:00 AM 19.8911 107.3089 46° Northeast  Level Estimated
Tue 07:31:00 AM 19.9693 107.3960 46° Northeast  Level Estimated
Tue 07:32:00 AM 20.0474 107.4832 46° Northeast  Level Estimated
Tue 07:33:00 AM 20.1255 107.5705 46° Northeast  Level Estimated
Tue 07:34:00 AM 20.2035 107.6579 46° Northeast  Level Estimated
Tue 07:35:00 AM 20.2815 107.7454 46° Northeast  Level Estimated
Tue 07:36:00 AM 20.3594 107.8329 46° Northeast  Level Estimated
Tue 07:37:00 AM 20.4373 107.9205 47° Northeast  Level Estimated
Tue 07:38:00 AM 20.5152 108.0083 47° Northeast  Level Estimated
Tue 07:39:00 AM 20.5930 108.0961 47° Northeast  Level Estimated
Tue 07:40:00 AM 20.6708 108.1840 47° Northeast  Level Estimated
Tue 07:41:00 AM 20.7485 108.2720 47° Northeast  Level Estimated
Tue 07:42:00 AM 20.8262 108.3601 47° Northeast  Level Estimated
Tue 07:43:00 AM 20.9038 108.4483 47° Northeast  Level Estimated
Tue 07:44:00 AM 20.9814 108.5366 47° Northeast  Level Estimated
Tue 07:45:00 AM 21.0589 108.6249 47° Northeast  Level Estimated
Tue 07:46:00 AM 21.1364 108.7134 47° Northeast  Level Estimated
Tue 07:47:00 AM 21.2139 108.8019 47° Northeast  Level Estimated
Tue 07:48:00 AM 21.2913 108.8906 47° Northeast  Level Estimated
Tue 07:49:00 AM 21.3686 108.9793 47° Northeast  Level Estimated
Tue 07:50:00 AM 21.4459 109.0682 47° Northeast  Level Estimated
Tue 07:51:00 AM 21.5232 109.1571 47° Northeast  Level Estimated
Tue 07:52:00 AM 21.6004 109.2461 47° Northeast  Level Estimated
Tue 07:53:00 AM 21.6776 109.3352 47° Northeast  Level Estimated
Tue 07:54:00 AM 21.7547 109.4244 47° Northeast  Level Estimated
Tue 07:55:00 AM 21.8318 109.5137 47° Northeast  Level Estimated
Tue 07:56:00 AM 21.9088 109.6031 47° Northeast  Level Estimated
Tue 07:57:00 AM 21.9858 109.6926 47° Northeast  Level Estimated
Tue 07:58:00 AM 22.0627 109.7822 47° Northeast  Level Estimated
Tue 07:59:00 AM 22.1396 109.8719 47° Northeast  Level Estimated
Tue 08:00:00 AM 22.2164 109.9617 47° Northeast  Level Estimated
Tue 08:01:00 AM 22.2932 110.0516 47° Northeast  Level Estimated
Tue 08:02:00 AM 22.3699 110.1416 47° Northeast  Level Estimated
Tue 08:03:00 AM 22.4466 110.2317 47° Northeast  Level Estimated
Tue 08:04:00 AM 22.5232 110.3219 47° Northeast  Level Estimated
Tue 08:05:00 AM 22.5998 110.4122 47° Northeast  Level Estimated
Tue 08:06:00 AM 22.6763 110.5026 47° Northeast  Level Estimated
Tue 08:07:00 AM 22.7528 110.5930 47° Northeast  Level Estimated
Tue 08:08:00 AM 22.8293 110.6836 48° Northeast  Level Estimated
Tue 08:09:00 AM 22.9056 110.7743 48° Northeast  Level Estimated
Tue 08:10:00 AM 22.9820 110.8651 48° Northeast  Level Estimated
Tue 08:11:00 AM 23.0582 110.9560 48° Northeast  Level Estimated
Tue 08:12:00 AM 23.1345 111.0470 48° Northeast  Level Estimated
Tue 08:13:00 AM 23.2106 111.1381 48° Northeast  Level Estimated
Tue 08:14:00 AM 23.2867 111.2293 48° Northeast  Level Estimated
Tue 08:15:00 AM 23.3628 111.3206 48° Northeast  Level Estimated
Tue 08:16:00 AM 23.4388 111.4121 48° Northeast  Level Estimated
Tue 08:17:00 AM 23.5148 111.5036 48° Northeast  Level Estimated
Tue 08:18:00 AM 23.5907 111.5952 48° Northeast  Level Estimated
Tue 08:19:00 AM 23.6665 111.6869 48° Northeast  Level Estimated
Tue 08:20:00 AM 23.7423 111.7788 48° Northeast  Level Estimated
Tue 08:21:00 AM 23.8181 111.8707 48° Northeast  Level Estimated
Tue 08:22:00 AM 23.8937 111.9628 48° Northeast  Level Estimated
Tue 08:23:00 AM 23.9694 112.0549 48° Northeast  Level Estimated
Tue 08:24:00 AM 24.0450 112.1472 48° Northeast  Level Estimated
Tue 08:25:00 AM 24.1205 112.2396 48° Northeast  Level Estimated
Tue 08:26:00 AM 24.1959 112.3321 48° Northeast  Level Estimated
Tue 08:27:00 AM 24.2714 112.4247 48° Northeast  Level Estimated
Tue 08:28:00 AM 24.3467 112.5174 48° Northeast  Level Estimated
Tue 08:29:00 AM 24.4220 112.6102 48° Northeast  Level Estimated
Tue 08:30:00 AM 24.4972 112.7031 48° Northeast  Level Estimated
Tue 08:31:00 AM 24.5724 112.7962 48° Northeast  Level Estimated
Tue 08:32:00 AM 24.6476 112.8893 48° Northeast  Level Estimated
Tue 08:33:00 AM 24.7226 112.9826 48° Northeast  Level Estimated
Tue 08:34:00 AM 24.7976 113.0760 48° Northeast  Level Estimated
Tue 08:35:00 AM 24.8726 113.1695 49° Northeast  Level Estimated
Tue 08:36:00 AM 24.9475 113.2631 49° Northeast  Level Estimated
Tue 08:37:00 AM 25.0223 113.3568 49° Northeast  Level Estimated
Tue 08:38:00 AM 25.0971 113.4506 49° Northeast  Level Estimated
Tue 08:39:00 AM 25.1718 113.5446 49° Northeast  Level Estimated
Tue 08:40:00 AM 25.2465 113.6386 49° Northeast  Level Estimated
Tue 08:41:00 AM 25.3211 113.7328 49° Northeast  Level Estimated
Tue 08:42:00 AM 25.3956 113.8271 49° Northeast  Level Estimated
Tue 08:43:00 AM 25.4701 113.9215 49° Northeast  Level Estimated
Tue 08:44:00 AM 25.5445 114.0160 49° Northeast  Level Estimated
Tue 08:45:00 AM 25.6189 114.1107 49° Northeast  Level Estimated
Tue 08:46:00 AM 25.6932 114.2054 49° Northeast  Level Estimated
Tue 08:47:00 AM 25.7674 114.3003 49° Northeast  Level Estimated
Tue 08:48:00 AM 25.8416 114.3953 49° Northeast  Level Estimated
Tue 08:49:00 AM 25.9157 114.4904 49° Northeast  Level Estimated
Tue 08:50:00 AM 25.9898 114.5857 49° Northeast  Level Estimated
Tue 08:51:00 AM 26.0637 114.6810 49° Northeast  Level Estimated
Tue 08:52:00 AM 26.1377 114.7765 49° Northeast  Level Estimated
Tue 08:53:00 AM 26.2115 114.8721 49° Northeast  Level Estimated
Tue 08:54:00 AM 26.2853 114.9678 49° Northeast  Level Estimated
Tue 08:55:00 AM 26.3591 115.0637 49° Northeast  Level Estimated
Tue 08:56:00 AM 26.4328 115.1596 49° Northeast  Level Estimated
Tue 08:57:00 AM 26.5064 115.2557 49° Northeast  Level Estimated
Tue 08:58:00 AM 26.5799 115.3519 49° Northeast  Level Estimated
Tue 08:59:00 AM 26.6534 115.4483 50° Northeast  Level Estimated
Tue 09:00:00 AM 26.7268 115.5447 50° Northeast  Level Estimated
Tue 09:01:00 AM 26.8001 115.6413 50° Northeast  Level Estimated
Tue 09:02:00 AM 26.8734 115.7380 50° Northeast  Level Estimated
Tue 09:03:00 AM 26.9466 115.8348 50° Northeast  Level Estimated
Tue 09:04:00 AM 27.0198 115.9318 50° Northeast  Level Estimated
Tue 09:05:00 AM 27.0929 116.0289 50° Northeast  Level Estimated
Tue 09:06:00 AM 27.1659 116.1261 50° Northeast  Level Estimated
Tue 09:07:00 AM 27.2388 116.2234 50° Northeast  Level Estimated
Tue 09:08:00 AM 27.3117 116.3209 50° Northeast  Level Estimated
Tue 09:09:00 AM 27.3845 116.4185 50° Northeast  Level Estimated
Tue 09:10:00 AM 27.4573 116.5162 50° Northeast  Level Estimated
Tue 09:11:00 AM 27.5300 116.6141 50° Northeast  Level Estimated
Tue 09:12:00 AM 27.6026 116.7120 50° Northeast  Level Estimated
Tue 09:13:00 AM 27.6751 116.8102 50° Northeast  Level Estimated
Tue 09:14:00 AM 27.7476 116.9084 50° Northeast  Level Estimated
Tue 09:15:00 AM 27.8200 117.0068 50° Northeast  Level Estimated
Tue 09:16:00 AM 27.8923 117.1053 50° Northeast  Level Estimated
Tue 09:17:00 AM 27.9646 117.2039 50° Northeast  Level Estimated
Tue 09:18:00 AM 28.0368 117.3027 50° Northeast  Level Estimated
Tue 09:19:00 AM 28.1089 117.4016 50° Northeast  Level Estimated
Tue 09:20:00 AM 28.1809 117.5006 50° Northeast  Level Estimated
Tue 09:21:00 AM 28.2529 117.5998 50° Northeast  Level Estimated
Tue 09:22:00 AM 28.3248 117.6991 51° Northeast  Level Estimated
Tue 09:23:00 AM 28.3967 117.7985 51° Northeast  Level Estimated
Tue 09:24:00 AM 28.4684 117.8981 51° Northeast  Level Estimated
Tue 09:25:00 AM 28.5401 117.9978 51° Northeast  Level Estimated
Tue 09:26:00 AM 28.6117 118.0976 51° Northeast  Level Estimated
Tue 09:27:00 AM 28.6833 118.1976 51° Northeast  Level Estimated
Tue 09:28:00 AM 28.7547 118.2977 51° Northeast  Level Estimated
Tue 09:29:00 AM 28.8262 118.3979 51° Northeast  Level Estimated
Tue 09:30:00 AM 28.8975 118.4983 51° Northeast  Level Estimated
Tue 09:31:00 AM 28.9687 118.5989 51° Northeast  Level Estimated
Tue 09:32:00 AM 29.0399 118.6995 51° Northeast  Level Estimated
Tue 09:33:00 AM 29.1110 118.8003 51° Northeast  Level Estimated
Tue 09:34:00 AM 29.1820 118.9013 51° Northeast  Level Estimated
Tue 09:35:00 AM 29.2530 119.0023 51° Northeast  Level Estimated
Tue 09:36:00 AM 29.3238 119.1036 51° Northeast  Level Estimated
Tue 09:37:00 AM 29.3946 119.2049 51° Northeast  Level Estimated
Tue 09:38:00 AM 29.4653 119.3064 51° Northeast  Level Estimated
Tue 09:39:00 AM 29.5360 119.4081 51° Northeast  Level Estimated
Tue 09:40:00 AM 29.6065 119.5099 51° Northeast  Level Estimated
Tue 09:41:00 AM 29.6770 119.6118 51° Northeast  Level Estimated
Tue 09:42:00 AM 29.7474 119.7139 52° Northeast  Level Estimated
Tue 09:43:00 AM 29.8178 119.8161 52° Northeast  Level Estimated
Tue 09:44:00 AM 29.8880 119.9184 52° Northeast  Level Estimated
Tue 09:45:00 AM 29.9582 120.0209 52° Northeast  Level Estimated
Tue 09:46:00 AM 30.0283 120.1236 52° Northeast  Level Estimated
Tue 09:47:00 AM 30.0983 120.2264 52° Northeast  Level Estimated
Tue 09:48:00 AM 30.1682 120.3293 52° Northeast  Level Estimated
Tue 09:49:00 AM 30.2381 120.4324 52° Northeast  Level Estimated
Tue 09:50:00 AM 30.3078 120.5356 52° Northeast  Level Estimated
Tue 09:51:00 AM 30.3775 120.6390 52° Northeast  Level Estimated
Tue 09:52:00 AM 30.4471 120.7426 52° Northeast  Level Estimated
Tue 09:53:00 AM 30.5167 120.8462 52° Northeast  Level Estimated
Tue 09:54:00 AM 30.5861 120.9501 52° Northeast  Level Estimated
Tue 09:55:00 AM 30.6555 121.0540 52° Northeast  Level Estimated
Tue 09:56:00 AM 30.7248 121.1581 52° Northeast  Level Estimated
Tue 09:57:00 AM 30.7939 121.2624 52° Northeast  Level Estimated
Tue 09:58:00 AM 30.8631 121.3668 52° Northeast  Level Estimated
Tue 09:59:00 AM 30.9321 121.4714 52° Northeast  Level Estimated
Tue 10:00:00 AM 31.0010 121.5761 52° Northeast  Level Estimated
Tue 10:01:00 AM 31.0699 121.6810 53° Northeast  Level Estimated
Tue 10:02:00 AM 31.1387 121.7860 53° Northeast  Level Estimated
Tue 10:03:00 AM 31.1428 121.7924 53° Northeast  Level Estimated
Tue 10:04:00 AM 31.1428 121.7924 221° Southwest  Level Estimated
Tue 10:05:00 AM 31.1428 121.7924 221° Southwest  Level Estimated
Tue 10:06:00 AM 31.1428 121.7924 221° Southwest  Level Estimated
Tue 10:07:00 AM 31.1428 121.7924 221° Southwest  Level Estimated
Tue 10:08:00 AM 31.1428 121.7924 221° Southwest  Level Estimated
Tue 10:09:00 AM 31.1428 121.7924 221° Southwest  Level Estimated
Tue 10:10:00 AM 31.1428 121.7924 221° Southwest  Level Estimated
Tue 10:11:00 AM 31.1428 121.7924 221° Southwest  Level Estimated
Tue 10:12:00 AM 31.1428 121.7924 221° Southwest  Level Estimated
Tue 10:13:00 AM 31.1428 121.7924 221° Southwest  Level Estimated
Tue 10:14:00 AM 31.1428 121.7924 221° Southwest  Level Estimated
Tue 10:15:00 AM 31.1428 121.7924 221° Southwest  Level Estimated
Tue 10:16:00 AM 31.1428 121.7924 221° Southwest  Level Estimated
Tue 10:17:00 AM 31.1428 121.7924 221° Southwest  Level Estimated
Tue 10:18:00 AM 31.1428 121.7924 221° Southwest  Level Estimated

Login

Don't have an account? Register now (free) for customized features, flight alerts, and more!